Pine Grove Mills, Pennsylvania
Current Conditions -  °F | °C
As of 10:15 PM on Monday 26 Jan 2015 (Local Time) from KUNV Reporting Station
Light Snow Light Snow  
Wind Chill: 22°   Ceiling: 4100
Heat Index: 22°   Visibility: 4mi
Dew Point: 20°   Wind: 3mph
Humidity: 93%   Direction: 20°NNE
Pressure: 29.79"   Gusts: NA
Location:  40.73°N, 77.88°W
Report Text: KUNV 270315Z AUTO 02003KT 4SM -SN SCT009 BKN041 OVC049 M06/M07 A2979 RMK AO2 T10571067
Loading
Personal Weather Stations






























Interactive Weather Map New forecast layout! Learn more

10-Day Weather Forecast

Advertisements
Track Severe Weather on mobile